Time;durP1;ratioP1;P1;durP2;ratioP2;P2;SDS_P1;SDS_P2;PMS_P1;PMS_P2;Temp;Humidity;BMP_temperature;BMP_pressure;BME280_temperature;BME280_humidity;BME280_pressure;Samples;Min_cycle;Max_cycle;Signal;HPM_P1;HPM_P2
2022/03/04 00:01:14;;;;;;;13.20;11.43;;;6.80;52.30;;;;;;4995921;28;20568;-64
2022/03/04 00:03:40;;;;;;;17.10;13.63;;;6.70;52.60;;;;;;4996642;28;20448;-65
2022/03/04 00:06:07;;;;;;;15.77;12.67;;;6.70;52.90;;;;;;4995759;28;20487;-65
2022/03/04 00:08:34;;;;;;;13.93;11.63;;;6.60;53.20;;;;;;4995720;28;20472;-65
2022/03/04 00:11:02;;;;;;;17.17;12.73;;;6.60;53.50;;;;;;4995727;28;20454;-65
2022/03/04 00:13:30;;;;;;;13.93;11.90;;;6.50;53.60;;;;;;4995746;28;20456;-65
2022/03/04 00:15:57;;;;;;;14.90;11.90;;;6.50;53.80;;;;;;4995655;28;20491;-65
2022/03/04 00:18:26;;;;;;;14.63;11.30;;;6.40;54.00;;;;;;4995420;28;20491;-64
2022/03/04 00:20:53;;;;;;;15.07;12.50;;;6.40;54.10;;;;;;4995502;28;20452;-64
2022/03/04 00:23:20;;;;;;;21.60;12.53;;;6.40;54.20;;;;;;4995222;28;20451;-64
2022/03/04 00:25:47;;;;;;;19.10;13.30;;;6.40;54.20;;;;;;4995368;28;20480;-64
2022/03/04 00:28:14;;;;;;;15.30;12.73;;;6.40;54.20;;;;;;4995107;28;20527;-64
2022/03/04 00:30:41;;;;;;;16.23;12.80;;;6.30;54.30;;;;;;4995464;28;20437;-64
2022/03/04 00:33:07;;;;;;;17.53;13.40;;;6.30;54.40;;;;;;4995149;28;21017;-64
2022/03/04 00:35:36;;;;;;;18.77;13.13;;;6.30;54.40;;;;;;4995076;28;20495;-64
2022/03/04 00:38:02;;;;;;;17.30;13.83;;;6.30;54.50;;;;;;4995488;28;20470;-64
2022/03/04 00:40:29;;;;;;;16.07;13.23;;;6.30;54.50;;;;;;4995212;28;20456;-64
2022/03/04 00:42:56;;;;;;;16.20;12.67;;;6.30;54.50;;;;;;4995411;28;20458;-64
2022/03/04 00:45:23;;;;;;;20.90;13.53;;;6.20;54.60;;;;;;4995053;28;20471;-64
2022/03/04 00:47:50;;;;;;;19.20;13.67;;;6.20;54.70;;;;;;4995005;28;20468;-64
2022/03/04 00:50:16;;;;;;;17.60;13.90;;;6.20;54.90;;;;;;4995044;28;20433;-65
2022/03/04 00:52:44;;;;;;;18.53;14.17;;;6.20;55.10;;;;;;4994735;28;20448;-64
2022/03/04 00:55:11;;;;;;;20.63;15.50;;;6.20;55.10;;;;;;4995193;28;20448;-65
2022/03/04 00:57:38;;;;;;;15.90;13.83;;;6.10;55.10;;;;;;4994777;28;20468;-64
2022/03/04 01:00:06;;;;;;;17.07;14.10;;;6.10;55.30;;;;;;4994455;28;20448;-64
2022/03/04 01:02:32;;;;;;;18.00;13.97;;;6.10;55.10;;;;;;4994443;28;20448;-64
2022/03/04 01:04:59;;;;;;;18.90;13.10;;;6.10;55.00;;;;;;4994729;28;20444;-64
2022/03/04 01:07:26;;;;;;;16.30;13.33;;;6.10;54.80;;;;;;4994591;28;20854;-64
2022/03/04 01:09:54;;;;;;;16.13;13.53;;;6.10;54.70;;;;;;4994410;28;20522;-64
2022/03/04 01:12:20;;;;;;;17.30;12.87;;;6.10;54.60;;;;;;4994293;28;20942;-65
2022/03/04 01:14:47;;;;;;;13.60;12.20;;;6.10;54.60;;;;;;4994582;28;20451;-65
2022/03/04 01:17:14;;;;;;;18.17;12.53;;;6.10;54.60;;;;;;4994099;28;21038;-64
2022/03/04 01:19:41;;;;;;;13.23;10.80;;;6.00;54.70;;;;;;4994357;28;20452;-64
2022/03/04 01:22:07;;;;;;;13.43;11.50;;;6.00;54.70;;;;;;4994641;28;20466;-65
2022/03/04 01:24:34;;;;;;;17.17;11.83;;;6.00;54.80;;;;;;4994319;28;20444;-64
2022/03/04 01:27:02;;;;;;;14.27;11.57;;;6.00;54.80;;;;;;4994183;28;20496;-64
2022/03/04 01:29:29;;;;;;;15.03;11.10;;;6.00;54.80;;;;;;4994014;28;20857;-64
2022/03/04 01:31:55;;;;;;;14.57;10.87;;;5.90;54.90;;;;;;4994226;28;20503;-64
2022/03/04 01:34:22;;;;;;;15.20;11.40;;;5.90;54.90;;;;;;4993617;28;20460;-64
2022/03/04 01:36:49;;;;;;;16.80;11.77;;;5.90;55.00;;;;;;4993411;28;20464;-64
2022/03/04 01:39:15;;;;;;;14.77;11.17;;;5.90;55.00;;;;;;4993389;28;20448;-65
2022/03/04 01:41:42;;;;;;;17.00;12.00;;;5.80;55.00;;;;;;4993614;28;20448;-65
2022/03/04 01:44:10;;;;;;;14.77;11.70;;;5.80;55.00;;;;;;4993110;28;20850;-65
2022/03/04 01:46:37;;;;;;;14.77;11.50;;;5.80;55.10;;;;;;4993270;28;20484;-64
2022/03/04 01:49:04;;;;;;;13.27;11.47;;;5.80;55.20;;;;;;4993949;28;20432;-64
2022/03/04 01:51:31;;;;;;;15.20;12.37;;;5.80;55.20;;;;;;4993360;28;20444;-64
2022/03/04 01:53:58;;;;;;;17.40;12.20;;;5.70;55.10;;;;;;4993028;28;20949;-64
2022/03/04 01:56:25;;;;;;;15.27;11.63;;;5.70;55.20;;;;;;4992922;28;20934;-64
2022/03/04 01:58:52;;;;;;;18.37;13.33;;;5.70;55.20;;;;;;4993033;28;20980;-64
2022/03/04 02:01:20;;;;;;;15.10;12.00;;;5.60;55.20;;;;;;4992899;28;20459;-64
2022/03/04 02:03:47;;;;;;;18.47;11.07;;;5.40;55.20;;;;;;4993171;28;20842;-64
2022/03/04 02:06:14;;;;;;;15.50;12.60;;;5.30;55.70;;;;;;4992936;28;20491;-63
2022/03/04 02:08:40;;;;;;;14.20;10.93;;;5.30;56.10;;;;;;4993121;28;20451;-64
2022/03/04 02:11:07;;;;;;;14.57;11.30;;;5.20;56.30;;;;;;4992701;28;20525;-64
2022/03/04 02:13:34;;;;;;;15.00;12.10;;;5.20;56.60;;;;;;4992990;28;20444;-64
2022/03/04 02:16:01;;;;;;;15.33;12.27;;;5.20;56.60;;;;;;4993076;28;20452;-64
2022/03/04 02:18:29;;;;;;;14.00;11.43;;;5.20;56.70;;;;;;4992966;28;20476;-64
2022/03/04 02:21:02;;;;;;;16.10;12.13;;;5.20;56.70;;;;;;4992994;28;20451;-64
2022/03/04 02:23:30;;;;;;;16.30;12.00;;;5.20;56.80;;;;;;4995800;28;20862;-64
2022/03/04 02:25:56;;;;;;;13.80;10.93;;;5.20;56.70;;;;;;4996021;28;20887;-64
2022/03/04 02:28:23;;;;;;;19.13;13.53;;;5.20;56.80;;;;;;4996320;28;20471;-64
2022/03/04 02:30:50;;;;;;;15.70;12.13;;;5.30;57.40;;;;;;4996325;28;20448;-64
2022/03/04 02:33:17;;;;;;;15.53;12.27;;;5.30;56.90;;;;;;4996326;28;20499;-64
2022/03/04 02:35:45;;;;;;;16.27;12.53;;;5.30;56.90;;;;;;4961216;28;1044026;-64
2022/03/04 02:38:12;;;;;;;20.77;14.63;;;5.30;57.00;;;;;;4997516;28;20222;-64
2022/03/04 02:40:40;;;;;;;17.03;13.47;;;5.30;57.00;;;;;;4997444;28;20451;-64
2022/03/04 02:43:07;;;;;;;18.23;13.97;;;5.30;56.90;;;;;;4997393;28;20448;-64
2022/03/04 02:45:34;;;;;;;18.90;13.50;;;5.30;56.80;;;;;;4996949;28;20961;-64
2022/03/04 02:48:01;;;;;;;18.53;13.60;;;5.30;56.80;;;;;;4997193;28;20499;-64
2022/03/04 02:50:28;;;;;;;20.33;14.57;;;5.40;56.90;;;;;;4997265;28;20443;-64
2022/03/04 02:52:55;;;;;;;17.20;13.10;;;5.40;56.70;;;;;;4997246;28;20451;-64
2022/03/04 02:55:23;;;;;;;23.33;14.00;;;5.40;56.70;;;;;;4997206;28;20448;-64
2022/03/04 02:57:51;;;;;;;19.47;13.00;;;5.40;56.70;;;;;;4996770;28;20996;-64
2022/03/04 03:00:18;;;;;;;17.60;12.93;;;5.40;56.80;;;;;;4997074;28;20471;-65
2022/03/04 03:02:45;;;;;;;18.07;13.37;;;5.40;56.60;;;;;;4997051;28;20455;-64
2022/03/04 03:05:13;;;;;;;17.87;12.67;;;5.40;56.60;;;;;;4997011;28;20448;-64
2022/03/04 03:07:40;;;;;;;19.10;14.30;;;5.40;56.50;;;;;;4996781;28;20617;-64
2022/03/04 03:10:08;;;;;;;18.70;14.77;;;5.40;56.40;;;;;;4996934;28;20518;-64
2022/03/04 03:12:35;;;;;;;19.67;12.97;;;5.40;56.50;;;;;;4997126;28;20483;-64
2022/03/04 03:15:03;;;;;;;18.17;12.73;;;5.40;56.50;;;;;;4997414;28;20429;-64
2022/03/04 03:17:30;;;;;;;18.40;14.20;;;5.40;56.40;;;;;;4996977;28;20460;-64
2022/03/04 03:19:57;;;;;;;17.10;12.87;;;5.40;56.50;;;;;;4996991;28;20447;-64
2022/03/04 03:22:24;;;;;;;20.87;15.13;;;5.30;56.40;;;;;;4996687;28;20503;-64
2022/03/04 03:24:50;;;;;;;20.43;14.73;;;5.30;56.30;;;;;;4996637;28;20827;-64
2022/03/04 03:27:17;;;;;;;17.33;13.80;;;5.30;56.40;;;;;;4996438;28;20488;-64
2022/03/04 03:29:44;;;;;;;19.47;13.17;;;5.30;56.50;;;;;;4996579;28;20448;-65
2022/03/04 03:32:13;;;;;;;19.70;13.27;;;5.30;56.60;;;;;;4996550;28;20447;-65
2022/03/04 03:34:40;;;;;;;21.73;14.73;;;5.30;56.60;;;;;;4996289;28;20493;-64
2022/03/04 03:37:08;;;;;;;28.03;14.10;;;5.30;56.90;;;;;;4996388;28;20814;-64
2022/03/04 03:39:34;;;;;;;16.10;13.00;;;5.30;56.80;;;;;;4996714;28;20448;-64
2022/03/04 03:42:01;;;;;;;19.60;14.50;;;5.30;57.00;;;;;;4996986;28;20448;-64
2022/03/04 03:44:28;;;;;;;24.43;16.43;;;5.30;57.00;;;;;;4996404;28;20452;-64
2022/03/04 03:46:56;;;;;;;19.90;14.57;;;5.30;56.90;;;;;;4996179;28;20488;-64
2022/03/04 03:49:24;;;;;;;18.40;13.80;;;5.30;56.70;;;;;;4995958;28;20506;-65
2022/03/04 03:51:51;;;;;;;18.97;14.50;;;5.30;56.50;;;;;;4996146;28;20452;-65
2022/03/04 03:54:17;;;;;;;17.13;13.30;;;5.30;56.60;;;;;;4996146;28;20444;-65
2022/03/04 03:56:44;;;;;;;25.87;15.00;;;5.20;56.60;;;;;;4996154;28;20472;-64
2022/03/04 03:59:11;;;;;;;19.77;14.77;;;5.20;56.70;;;;;;4996086;28;20437;-64
2022/03/04 04:01:38;;;;;;;17.67;14.30;;;5.20;56.80;;;;;;4995985;28;20448;-64
2022/03/04 04:04:05;;;;;;;22.70;15.50;;;5.20;56.80;;;;;;4995955;28;20503;-64
2022/03/04 04:06:33;;;;;;;18.97;14.10;;;5.20;56.90;;;;;;4995737;28;20448;-64
2022/03/04 04:09:02;;;;;;;17.70;13.93;;;5.20;56.90;;;;;;4995880;28;20448;-64
2022/03/04 04:11:29;;;;;;;20.00;14.80;;;5.10;56.80;;;;;;4995800;28;20492;-64
2022/03/04 04:13:55;;;;;;;18.43;12.97;;;5.10;56.80;;;;;;4995777;28;20824;-64
2022/03/04 04:16:22;;;;;;;17.80;13.60;;;5.10;56.80;;;;;;4996095;28;20455;-63
2022/03/04 04:18:49;;;;;;;17.77;12.70;;;5.10;57.00;;;;;;4995631;28;20459;-63
2022/03/04 04:21:15;;;;;;;21.00;13.70;;;5.10;57.00;;;;;;4995315;28;20479;-63
2022/03/04 04:23:43;;;;;;;17.73;14.30;;;5.00;57.00;;;;;;4995326;28;20861;-63
2022/03/04 04:26:10;;;;;;;19.03;14.30;;;5.00;57.10;;;;;;4995593;28;20451;-64
2022/03/04 04:28:37;;;;;;;21.70;14.20;;;5.00;57.00;;;;;;4995318;28;20496;-63
2022/03/04 04:31:03;;;;;;;19.17;13.97;;;5.00;57.10;;;;;;4995442;28;20448;-63
2022/03/04 04:33:31;;;;;;;18.70;13.60;;;5.00;57.30;;;;;;4995429;28;20483;-63
2022/03/04 04:35:58;;;;;;;19.70;14.13;;;4.90;57.40;;;;;;4995023;28;20460;-63
2022/03/04 04:38:25;;;;;;;20.70;14.10;;;4.90;57.40;;;;;;4995288;28;20461;-63
2022/03/04 04:40:53;;;;;;;19.10;13.80;;;4.90;57.40;;;;;;4995029;28;20433;-63
2022/03/04 04:43:20;;;;;;;21.23;14.77;;;4.90;57.40;;;;;;4995292;28;20444;-63
2022/03/04 04:45:46;;;;;;;19.00;13.80;;;4.90;57.70;;;;;;4994608;28;20448;-63
2022/03/04 04:48:13;;;;;;;18.83;14.30;;;4.90;57.60;;;;;;4994952;28;20491;-63
2022/03/04 04:50:40;;;;;;;18.40;13.40;;;4.90;57.80;;;;;;4995117;28;20543;-63
2022/03/04 04:53:07;;;;;;;18.90;14.23;;;4.90;57.70;;;;;;4995077;28;20503;-63
2022/03/04 04:55:34;;;;;;;20.23;14.53;;;4.90;57.70;;;;;;4995024;28;20547;-64
2022/03/04 04:58:02;;;;;;;22.10;15.30;;;4.80;57.60;;;;;;4994630;28;20842;-63
2022/03/04 05:00:29;;;;;;;20.53;14.80;;;4.80;57.60;;;;;;4994949;28;20456;-64
2022/03/04 05:02:56;;;;;;;22.73;14.30;;;4.80;57.70;;;;;;4994881;28;20445;-63
2022/03/04 05:05:23;;;;;;;20.77;15.17;;;4.80;57.60;;;;;;4994495;28;20448;-63
2022/03/04 05:07:49;;;;;;;21.03;14.30;;;4.70;57.70;;;;;;4994868;28;20487;-63
2022/03/04 05:10:16;;;;;;;23.30;14.40;;;4.70;57.80;;;;;;4994417;28;20973;-63
2022/03/04 05:12:43;;;;;;;18.70;14.37;;;4.70;58.10;;;;;;4994761;28;20455;-63
2022/03/04 05:15:11;;;;;;;22.33;14.30;;;4.70;58.20;;;;;;4994720;28;20440;-64
2022/03/04 05:17:38;;;;;;;21.40;14.77;;;4.70;58.20;;;;;;4994551;28;21000;-63
2022/03/04 05:20:06;;;;;;;24.47;14.80;;;4.60;58.20;;;;;;4994577;28;20448;-63
2022/03/04 05:22:33;;;;;;;17.77;13.67;;;4.60;58.20;;;;;;4994676;28;20433;-63
2022/03/04 05:25:00;;;;;;;20.57;14.93;;;4.60;58.20;;;;;;4994480;28;20455;-63
2022/03/04 05:27:27;;;;;;;19.73;13.70;;;4.60;58.20;;;;;;4994297;28;20479;-63
2022/03/04 05:29:53;;;;;;;24.30;15.63;;;4.60;58.10;;;;;;4994487;28;20452;-63
2022/03/04 05:32:21;;;;;;;20.60;15.27;;;4.60;58.10;;;;;;4994420;28;20447;-63
2022/03/04 05:34:48;;;;;;;22.07;14.87;;;4.60;58.30;;;;;;4994129;28;20522;-63
2022/03/04 05:37:15;;;;;;;18.63;13.80;;;4.50;58.30;;;;;;4994307;28;20467;-63
2022/03/04 05:39:41;;;;;;;20.27;14.53;;;4.50;58.50;;;;;;4994227;28;20463;-63
2022/03/04 05:42:08;;;;;;;19.80;14.37;;;4.50;58.70;;;;;;4994289;28;20448;-63
2022/03/04 05:44:35;;;;;;;21.47;15.60;;;4.50;58.90;;;;;;4994856;28;20433;-63
2022/03/04 05:47:02;;;;;;;20.87;14.77;;;4.50;59.00;;;;;;4993773;28;20996;-63
2022/03/04 05:49:30;;;;;;;19.87;15.00;;;4.50;59.00;;;;;;4994186;28;20444;-63
2022/03/04 05:51:56;;;;;;;19.97;14.10;;;4.50;59.10;;;;;;4995198;28;20587;-63
2022/03/04 05:54:24;;;;;;;20.17;14.10;;;4.50;59.10;;;;;;4994145;28;20448;-63
2022/03/04 05:56:51;;;;;;;18.53;13.53;;;4.40;59.00;;;;;;4993182;28;20559;-63
2022/03/04 05:59:17;;;;;;;21.27;15.40;;;4.40;59.00;;;;;;4995055;28;20436;-64
2022/03/04 06:01:44;;;;;;;19.47;14.60;;;4.40;59.00;;;;;;4993797;28;20868;-64
2022/03/04 06:06:42;;;;;;;20.93;15.20;;;4.40;58.90;;;;;;5017120;23;20562;-64
2022/03/04 06:09:09;;;;;;;19.40;14.70;;;4.30;58.80;;;;;;4993796;28;20864;-65
2022/03/04 06:11:35;;;;;;;22.53;15.23;;;4.30;58.90;;;;;;4993958;28;20451;-65
2022/03/04 06:14:02;;;;;;;20.77;13.97;;;4.20;59.00;;;;;;4993625;28;20973;-65
2022/03/04 06:16:29;;;;;;;22.13;15.10;;;4.20;59.10;;;;;;4993876;28;20487;-65
2022/03/04 06:18:56;;;;;;;20.00;14.43;;;4.20;59.00;;;;;;4993941;28;20459;-65
2022/03/04 06:21:23;;;;;;;23.70;15.40;;;4.10;59.10;;;;;;4994069;28;20492;-65
2022/03/04 06:23:52;;;;;;;19.10;13.97;;;4.10;59.30;;;;;;4993945;28;20524;-65
2022/03/04 06:26:21;;;;;;;20.33;15.20;;;4.10;59.40;;;;;;4993815;28;20954;-64
2022/03/04 06:28:47;;;;;;;22.33;15.47;;;4.10;59.30;;;;;;4993955;28;20472;-65
2022/03/04 06:31:14;;;;;;;17.07;13.73;;;4.10;59.50;;;;;;4994010;28;20810;-65
2022/03/04 06:33:42;;;;;;;19.57;15.33;;;4.10;59.60;;;;;;4993814;28;20436;-64
2022/03/04 06:36:12;;;;;;;22.73;15.83;;;4.10;60.30;;;;;;4993871;28;20510;-65
2022/03/04 06:38:42;;;;;;;22.80;15.70;;;4.10;59.80;;;;;;4993983;28;20530;-64
2022/03/04 06:41:10;;;;;;;19.27;14.60;;;4.10;59.90;;;;;;4993296;28;20919;-64
2022/03/04 06:43:38;;;;;;;21.83;15.87;;;4.10;60.00;;;;;;4993719;28;20813;-62
2022/03/04 06:46:06;;;;;;;18.80;13.73;;;4.10;60.00;;;;;;4993686;28;20523;-63
2022/03/04 06:48:34;;;;;;;21.73;14.83;;;4.20;62.50;;;;;;4993376;28;20562;-62
2022/03/04 06:51:01;;;;;;;22.30;14.57;;;4.20;61.60;;;;;;4993504;28;20415;-62
2022/03/04 06:53:28;;;;;;;20.17;15.50;;;4.20;60.90;;;;;;4993457;28;20444;-62
2022/03/04 06:55:55;;;;;;;19.73;14.70;;;4.20;60.60;;;;;;4993888;28;20448;-62
2022/03/04 06:58:23;;;;;;;24.10;15.73;;;4.20;60.60;;;;;;4993412;28;20471;-62
2022/03/04 07:00:50;;;;;;;25.37;15.87;;;4.20;60.60;;;;;;4993534;28;20447;-62
2022/03/04 07:03:17;;;;;;;20.57;15.40;;;4.20;60.60;;;;;;4992971;28;20953;-62
2022/03/04 07:05:45;;;;;;;19.47;14.13;;;4.20;60.60;;;;;;4993361;28;20459;-62
2022/03/04 07:08:13;;;;;;;17.60;13.50;;;4.30;61.00;;;;;;4994452;28;21024;-62
2022/03/04 07:10:40;;;;;;;20.53;14.03;;;4.30;61.00;;;;;;4996453;28;20570;-62
2022/03/04 07:13:07;;;;;;;24.43;17.03;;;4.30;61.10;;;;;;4996734;28;20435;-62
2022/03/04 07:15:36;;;;;;;21.30;15.00;;;4.40;61.20;;;;;;4996435;28;21001;-62
2022/03/04 07:18:03;;;;;;;24.20;15.60;;;4.40;61.30;;;;;;4996720;28;20515;-62
2022/03/04 07:20:29;;;;;;;22.90;15.77;;;4.50;61.30;;;;;;4996643;28;20431;-62
2022/03/04 07:22:57;;;;;;;20.13;13.97;;;4.50;61.30;;;;;;4996622;28;20456;-62
2022/03/04 07:25:24;;;;;;;22.60;15.43;;;4.50;61.60;;;;;;4996550;28;20543;-62
2022/03/04 07:27:50;;;;;;;19.97;14.27;;;4.50;61.60;;;;;;4996620;28;20487;-62
2022/03/04 07:30:18;;;;;;;23.83;16.23;;;4.60;61.60;;;;;;4996247;28;20938;-62
2022/03/04 07:32:46;;;;;;;23.20;15.27;;;4.60;61.30;;;;;;4996205;28;20914;-62
2022/03/04 07:35:14;;;;;;;19.13;14.80;;;4.60;61.20;;;;;;4996419;28;20885;-62
2022/03/04 07:37:42;;;;;;;19.40;13.77;;;4.70;61.60;;;;;;4996025;28;20467;-62
2022/03/04 07:40:12;;;;;;;20.77;14.43;;;4.70;62.00;;;;;;4996232;28;20455;-62
2022/03/04 07:42:39;;;;;;;22.53;16.50;;;4.70;61.90;;;;;;4996442;28;20440;-62
2022/03/04 07:45:08;;;;;;;22.10;16.10;;;4.80;61.80;;;;;;4996200;28;20530;-62
2022/03/04 07:47:34;;;;;;;20.30;15.20;;;4.80;61.70;;;;;;4995833;28;20835;-62
2022/03/04 07:50:03;;;;;;;30.20;17.97;;;4.90;61.90;;;;;;4996119;28;20444;-62
2022/03/04 07:52:31;;;;;;;24.10;15.47;;;4.90;61.70;;;;;;4996092;28;20456;-62
2022/03/04 07:54:59;;;;;;;21.07;15.90;;;5.00;61.60;;;;;;4995975;28;20452;-62
2022/03/04 07:57:25;;;;;;;24.20;16.43;;;5.10;61.50;;;;;;4995771;28;20504;-62
2022/03/04 07:59:52;;;;;;;22.43;17.47;;;5.10;61.10;;;;;;4996139;28;20447;-62
2022/03/04 08:02:19;;;;;;;23.50;15.60;;;5.20;60.50;;;;;;4995556;28;20784;-62
2022/03/04 08:04:46;;;;;;;25.97;16.80;;;5.30;59.90;;;;;;4995523;28;20440;-62
2022/03/04 08:07:14;;;;;;;20.70;14.60;;;5.40;59.60;;;;;;4995638;28;20471;-64
2022/03/04 08:09:41;;;;;;;24.57;16.30;;;5.40;59.50;;;;;;4995300;28;20571;-64
2022/03/04 08:12:09;;;;;;;23.33;15.60;;;5.50;59.60;;;;;;4995466;28;20446;-64
2022/03/04 08:14:36;;;;;;;25.50;16.67;;;5.50;59.80;;;;;;4995121;28;20869;-64
2022/03/04 08:17:03;;;;;;;20.23;15.17;;;5.60;59.50;;;;;;4995516;28;20523;-64
2022/03/04 08:19:30;;;;;;;24.50;15.53;;;5.70;59.20;;;;;;4994872;28;20428;-64
2022/03/04 08:21:57;;;;;;;22.33;15.67;;;5.80;59.20;;;;;;4995697;28;20547;-64
2022/03/04 08:24:25;;;;;;;22.87;17.10;;;5.80;59.20;;;;;;4995476;28;20816;-64
2022/03/04 08:26:52;;;;;;;23.53;15.33;;;5.80;59.00;;;;;;4995125;28;20500;-64
2022/03/04 08:29:19;;;;;;;21.70;16.17;;;5.90;59.00;;;;;;4995177;28;20472;-64
2022/03/04 08:31:45;;;;;;;22.30;16.30;;;6.00;59.00;;;;;;4995250;28;20957;-64
2022/03/04 08:34:12;;;;;;;23.93;16.63;;;6.10;58.90;;;;;;4995449;28;20506;-64
2022/03/04 08:36:39;;;;;;;26.37;16.60;;;6.10;58.60;;;;;;4995406;28;20468;-65
2022/03/04 08:39:06;;;;;;;25.63;16.13;;;6.20;58.60;;;;;;4995430;28;20452;-65
2022/03/04 08:41:34;;;;;;;27.03;15.67;;;6.20;58.50;;;;;;4995728;28;20448;-65
2022/03/04 08:44:01;;;;;;;20.07;16.10;;;6.30;58.40;;;;;;4995996;28;20455;-64
2022/03/04 08:46:29;;;;;;;24.67;18.03;;;6.30;58.30;;;;;;4995300;28;20454;-64
2022/03/04 08:48:56;;;;;;;28.50;18.07;;;6.40;58.20;;;;;;4995977;28;20484;-64
2022/03/04 08:51:25;;;;;;;23.40;15.57;;;6.50;57.90;;;;;;4996080;28;20452;-64
2022/03/04 08:53:51;;;;;;;26.77;17.63;;;6.50;57.80;;;;;;4994932;28;20966;-64
2022/03/04 08:56:18;;;;;;;23.23;16.10;;;6.60;57.80;;;;;;4994937;28;20471;-64
2022/03/04 08:58:46;;;;;;;21.90;15.23;;;6.60;57.70;;;;;;4994812;28;20534;-64
2022/03/04 09:01:14;;;;;;;21.77;15.53;;;6.70;57.50;;;;;;4995310;28;20486;-64
2022/03/04 09:03:40;;;;;;;26.73;16.77;;;6.70;57.40;;;;;;4995176;28;20452;-64
2022/03/04 09:06:07;;;;;;;22.53;16.60;;;6.80;57.40;;;;;;4994878;28;20467;-64
2022/03/04 09:08:34;;;;;;;22.97;15.90;;;6.90;57.30;;;;;;4995006;28;20488;-64
2022/03/04 09:11:00;;;;;;;21.03;16.90;;;6.90;57.00;;;;;;4995267;28;20788;-65
2022/03/04 09:13:27;;;;;;;21.13;16.57;;;7.00;57.00;;;;;;4994754;28;20491;-64
2022/03/04 09:15:56;;;;;;;24.03;15.80;;;7.10;57.00;;;;;;4995233;28;20457;-64
2022/03/04 09:18:22;;;;;;;21.30;17.00;;;7.20;56.70;;;;;;4995308;28;20468;-64
2022/03/04 09:20:49;;;;;;;20.43;15.67;;;7.20;56.50;;;;;;4994725;28;20444;-65
2022/03/04 09:23:16;;;;;;;30.93;18.47;;;7.30;56.40;;;;;;4994559;28;20443;-64
2022/03/04 09:25:43;;;;;;;21.70;17.53;;;7.40;55.70;;;;;;4994483;28;20448;-65
2022/03/04 09:28:10;;;;;;;24.60;17.03;;;7.50;55.40;;;;;;4994223;28;20470;-65
2022/03/04 09:30:37;;;;;;;22.30;16.73;;;7.50;55.40;;;;;;4994159;28;20499;-65
2022/03/04 09:33:05;;;;;;;25.37;18.70;;;7.60;55.20;;;;;;4994459;28;20444;-65
2022/03/04 09:35:33;;;;;;;24.83;17.37;;;7.70;54.90;;;;;;4994302;28;20462;-65
2022/03/04 09:38:00;;;;;;;21.37;17.47;;;7.90;55.00;;;;;;4993986;28;20472;-64
2022/03/04 09:40:26;;;;;;;24.50;18.17;;;7.90;54.60;;;;;;4994340;28;20441;-64
2022/03/04 09:42:55;;;;;;;27.03;18.20;;;8.10;54.50;;;;;;4994148;28;20447;-65
2022/03/04 09:45:22;;;;;;;23.67;18.37;;;8.20;54.20;;;;;;4994259;28;20452;-65
2022/03/04 09:47:49;;;;;;;26.60;18.23;;;8.30;54.00;;;;;;4994123;28;20476;-65
2022/03/04 09:50:18;;;;;;;22.63;18.20;;;8.40;53.30;;;;;;4994059;28;20584;-65
2022/03/04 09:52:46;;;;;;;30.63;19.00;;;8.50;53.00;;;;;;4994164;28;20436;-65
2022/03/04 09:55:13;;;;;;;26.97;19.80;;;8.60;52.70;;;;;;4994057;28;20448;-65
2022/03/04 09:57:41;;;;;;;25.40;17.80;;;8.70;52.40;;;;;;4993858;28;20508;-65
2022/03/04 10:00:11;;;;;;;29.43;20.23;;;8.80;52.00;;;;;;4993987;28;20498;-64
2022/03/04 10:02:38;;;;;;;22.20;17.90;;;8.90;52.10;;;;;;4993620;28;20543;-65
2022/03/04 10:05:05;;;;;;;22.67;18.40;;;9.00;51.60;;;;;;4994000;28;20436;-65
2022/03/04 10:07:41;;;;;;;25.40;18.77;;;9.20;51.80;;;;;;4993827;28;20480;-65
2022/03/04 10:10:14;;;;;;;26.60;18.93;;;9.40;51.80;;;;;;4993674;28;20488;-65
2022/03/04 10:12:48;;;;;;;24.33;20.40;;;9.60;51.40;;;;;;4993531;28;20460;-65
2022/03/04 10:15:15;;;;;;;28.17;22.20;;;9.80;50.00;;;;;;4993978;28;20455;-66
2022/03/04 10:17:41;;;;;;;25.77;20.23;;;10.00;48.40;;;;;;4993966;28;20475;-65
2022/03/04 10:20:12;;;;;;;25.60;21.27;;;10.20;47.40;;;;;;4993997;28;20455;-66
2022/03/04 10:22:44;;;;;;;30.50;22.40;;;10.50;47.20;;;;;;4994000;28;20424;-65
2022/03/04 10:25:17;;;;;;;27.03;20.70;;;10.80;46.70;;;;;;4994669;28;20436;-66
2022/03/04 10:27:44;;;;;;;27.70;21.33;;;11.20;45.50;;;;;;4993727;28;20472;-65
2022/03/04 10:30:11;;;;;;;27.63;21.83;;;11.70;44.90;;;;;;4993959;28;20487;-66
2022/03/04 10:32:38;;;;;;;27.63;19.70;;;12.00;43.90;;;;;;4993769;28;20456;-66
2022/03/04 10:35:07;;;;;;;26.67;22.43;;;12.50;42.80;;;;;;4993742;28;20444;-65
2022/03/04 10:37:44;;;;;;;28.20;22.97;;;13.00;42.80;;;;;;4993618;28;20471;-65
2022/03/04 10:40:13;;;;;;;25.40;21.57;;;13.50;42.00;;;;;;4993779;28;20435;-65
2022/03/04 10:42:46;;;;;;;23.37;20.80;;;14.10;41.00;;;;;;4994210;28;20436;-65
2022/03/04 10:45:15;;;;;;;26.43;23.60;;;14.70;40.00;;;;;;4997453;28;20450;-65
2022/03/04 10:47:44;;;;;;;29.90;23.70;;;15.30;36.50;;;;;;4997288;28;20468;-65
2022/03/04 10:50:11;;;;;;;25.60;23.00;;;15.80;36.40;;;;;;4997287;28;20837;-66
2022/03/04 10:52:55;;;;;;;25.67;23.10;;;16.30;35.70;;;;;;4997278;28;20451;-66
2022/03/04 10:55:33;;;;;;;25.87;22.77;;;16.90;35.00;;;;;;4998111;28;20428;-66
2022/03/04 10:58:01;;;;;;;24.43;21.80;;;17.60;33.80;;;;;;4997474;28;20468;-65
2022/03/04 11:00:29;;;;;;;27.63;23.60;;;18.10;32.60;;;;;;4996783;28;20926;-65
2022/03/04 11:02:56;;;;;;;26.30;23.40;;;18.60;30.10;;;;;;4997185;28;20452;-66
2022/03/04 11:05:24;;;;;;;32.33;26.67;;;18.80;29.30;;;;;;4997556;28;20470;-66
2022/03/04 11:07:53;;;;;;;28.20;25.20;;;18.90;29.00;;;;;;4996979;28;20540;-66
2022/03/04 11:10:21;;;;;;;29.37;26.20;;;19.10;30.00;;;;;;4996682;28;21021;-66
2022/03/04 11:12:52;;;;;;;27.13;24.43;;;19.20;29.10;;;;;;4997038;28;20444;-66
2022/03/04 11:15:20;;;;;;;29.53;26.40;;;19.50;30.00;;;;;;4996975;28;20440;-65
2022/03/04 11:17:48;;;;;;;29.77;26.47;;;19.90;29.20;;;;;;4996895;28;20582;-65
2022/03/04 11:20:15;;;;;;;26.10;23.43;;;20.20;28.10;;;;;;4996886;28;20448;-65
2022/03/04 11:22:44;;;;;;;24.83;22.40;;;20.60;28.80;;;;;;4996520;28;20457;-66
2022/03/04 11:25:15;;;;;;;25.30;22.80;;;21.00;28.30;;;;;;4996602;28;20483;-65
2022/03/04 11:27:44;;;;;;;23.00;20.80;;;21.50;27.50;;;;;;4996595;28;20476;-65
2022/03/04 11:30:31;;;;;;;26.17;23.47;;;21.90;27.00;;;;;;4996534;28;20480;-65
2022/03/04 11:33:06;;;;;;;25.20;22.77;;;22.40;26.80;;;;;;4996581;28;20444;-65
2022/03/04 11:35:48;;;;;;;26.27;23.53;;;22.80;26.60;;;;;;4996155;28;20809;-65
2022/03/04 11:38:16;;;;;;;23.83;21.43;;;23.30;26.40;;;;;;4996435;28;20500;-66
2022/03/04 11:40:51;;;;;;;25.27;22.57;;;23.70;25.60;;;;;;4996188;28;20448;-63
2022/03/04 11:43:18;;;;;;;23.57;21.37;;;24.10;25.50;;;;;;4996233;28;20435;-65
2022/03/04 11:45:44;;;;;;;22.27;20.00;;;24.50;24.70;;;;;;4995993;28;20902;-65
2022/03/04 11:48:13;;;;;;;22.70;20.67;;;24.90;24.30;;;;;;4996169;28;20527;-64
2022/03/04 11:50:52;;;;;;;23.30;20.80;;;25.20;24.00;;;;;;4996045;28;20499;-64
2022/03/04 11:53:22;;;;;;;21.87;19.60;;;25.60;23.90;;;;;;4996055;28;20436;-64
2022/03/04 11:56:14;;;;;;;69.30;24.53;;;26.00;22.80;;;;;;4996283;28;20531;-64
2022/03/04 11:59:08;;;;;;;21.90;19.60;;;26.40;22.40;;;;;;4985772;28;20526;-64
2022/03/04 12:01:36;;;;;;;19.80;17.97;;;26.70;21.50;;;;;;4995994;28;20428;-64
2022/03/04 12:04:08;;;;;;;22.37;20.27;;;27.00;21.40;;;;;;4995592;28;20897;-64
2022/03/04 12:06:35;;;;;;;21.63;19.53;;;27.30;20.10;;;;;;4996167;28;20451;-64
2022/03/04 12:09:26;;;;;;;20.43;18.67;;;27.60;20.80;;;;;;4995362;28;20456;-63
2022/03/04 12:12:16;;;;;;;22.90;20.80;;;27.90;20.60;;;;;;4996062;28;20456;-64
2022/03/04 12:14:43;;;;;;;23.20;21.00;;;28.30;20.00;;;;;;4995431;28;20436;-64
2022/03/04 12:17:10;;;;;;;21.93;19.80;;;28.50;19.70;;;;;;4995527;28;20467;-64
2022/03/04 12:19:37;;;;;;;21.43;19.53;;;28.80;19.80;;;;;;4995341;28;20449;-65
2022/03/04 12:22:05;;;;;;;23.57;21.57;;;29.10;19.30;;;;;;4995393;28;20451;-64
2022/03/04 12:24:32;;;;;;;23.83;21.63;;;29.30;19.00;;;;;;4995596;28;20428;-64
2022/03/04 12:27:00;;;;;;;22.30;20.20;;;29.60;18.80;;;;;;4995527;28;20989;-64
2022/03/04 12:32:20;;;;;;;23.43;21.20;;;29.80;18.70;;;;;;5112528;27;20546;-61
2022/03/04 12:34:50;;;;;;;23.13;21.07;;;30.40;17.90;;;;;;5110975;28;20958;-60
2022/03/04 12:37:17;;;;;;;24.17;21.17;;;30.70;17.80;;;;;;5111525;28;20466;-61
2022/03/04 12:39:50;;;;;;;22.70;20.60;;;30.90;17.20;;;;;;5111048;28;20451;-60
2022/03/04 12:42:17;;;;;;;23.33;21.30;;;31.20;17.10;;;;;;5110969;28;20908;-61
2022/03/04 12:44:46;;;;;;;25.40;23.20;;;31.40;16.90;;;;;;5112284;28;20427;-62